PWSweather.com
Personal Weather Stations
Station Observations
COONRAPIDS
Minneapolis, MN 55433

Minneapolis, MN 55433

Lat: 45.187721, Lon: -93.36828

Elevation: 898

Station Type: Davis Vantage Pro 2

Latest ConditionsUpdated 6:20:01 PM CST Sunday, Nov 19, 2017
Currently Today's Max Today's Min Today's Average
Temperature 29.5°F-1.4°C 39.8°F4.3°C 16.6°F-8.6°C 25.6°F-3.6°C
Dew Point 21.6°F-5.8°C 24.0°F-4.4°C 9.3°F-12.6°C 14.8°F-9.6°C
Winds Calm Calm 3.5 mph SW5.6 kmh SW - 0.4 mph 0.6 kmh
Wind Gusts -- 6.9 mph11.1 kmh - -
Humidity 72% 78% 49% 64%
Pressure 29.88 in1011.9 mb 30.11 in1019.6 mb 29.88 in1011.9 mb -
Hour Temp Dew Point Humidity Winds Wind Gusts Pressure Precip Precip Rate Daily Precip Total
06:20 PM 29.5°F-1.4°C 21.6°F-5.8°C 72% Calm Calm -- 29.88 in1011.9 mb - 0.00 in0.0 mm 0.00 in0.0 mm
06:10 PM 29.9°F-1.2°C 22.0°F-5.6°C 72% Calm Calm -- 29.88 in1011.9 mb - 0.00 in0.0 mm 0.00 in0.0 mm
06:00 PM 30.2°F-1.0°C 22.3°F-5.4°C 72% Calm Calm -- 29.88 in1011.9 mb - 0.00 in0.0 mm 0.00 in0.0 mm
05:50 PM 30.4°F-0.9°C 22.1°F-5.5°C 71% Calm Calm -- 29.88 in1011.9 mb - 0.00 in0.0 mm 0.00 in0.0 mm
05:40 PM 30.8°F-0.7°C 21.8°F-5.7°C 69% Calm Calm -- 29.88 in1011.9 mb - 0.00 in0.0 mm 0.00 in0.0 mm
05:30 PM 31.4°F-0.3°C 21.7°F-5.7°C 67% Calm Calm -- 29.89 in1012.2 mb - 0.00 in0.0 mm 0.00 in0.0 mm
05:20 PM 32.3°F0.2°C 22.2°F-5.4°C 66% Calm Calm -- 29.89 in1012.2 mb - 0.00 in0.0 mm 0.00 in0.0 mm
05:10 PM 33.3°F0.7°C 22.1°F-5.5°C 63% Calm Calm -- 29.89 in1012.2 mb - 0.00 in0.0 mm 0.00 in0.0 mm
05:00 PM 34.3°F1.3°C 22.3°F-5.4°C 61% Calm Calm -- 29.90 in1012.5 mb - 0.00 in0.0 mm 0.00 in0.0 mm
04:50 PM 35.4°F1.9°C 22.9°F-5.1°C 60% Calm Calm -- 29.90 in1012.5 mb - 0.00 in0.0 mm 0.00 in0.0 mm
04:40 PM 36.5°F2.5°C 23.1°F-4.9°C 58% Calm Calm -- 29.91 in1012.9 mb - 0.00 in0.0 mm 0.00 in0.0 mm
04:30 PM 37.6°F3.1°C 23.3°F-4.8°C 56% Calm Calm -- 29.91 in1012.9 mb - 0.00 in0.0 mm 0.00 in0.0 mm
04:20 PM 38.6°F3.7°C 23.8°F-4.6°C 55% Calm Calm -- 29.91 in1012.9 mb - 0.00 in0.0 mm 0.00 in0.0 mm
04:10 PM 39.2°F4.0°C 24.0°F-4.4°C 54% Calm Calm -- 29.91 in1012.9 mb - 0.00 in0.0 mm 0.00 in0.0 mm
04:00 PM 39.8°F4.3°C 24.0°F-4.4°C 53% Calm Calm -- 29.91 in1012.9 mb - 0.00 in0.0 mm 0.00 in0.0 mm
03:50 PM 39.8°F4.3°C 24.0°F-4.4°C 53% 1.2 mph S1.9 kmh S 3.5 mph5.6 kmh 29.92 in1013.2 mb - 0.00 in0.0 mm 0.00 in0.0 mm
03:40 PM 39.8°F4.3°C 23.6°F-4.7°C 52% Calm Calm -- 29.92 in1013.2 mb - 0.00 in0.0 mm 0.00 in0.0 mm
03:30 PM 39.6°F4.2°C 23.4°F-4.8°C 52% 1.2 mph SW1.9 kmh SW 2.3 mph3.7 kmh 29.92 in1013.2 mb - 0.00 in0.0 mm 0.00 in0.0 mm
03:20 PM 39.3°F4.1°C 23.2°F-4.9°C 52% 1.2 mph SSW1.9 kmh SSW 3.5 mph5.6 kmh 29.92 in1013.2 mb - 0.00 in0.0 mm 0.00 in0.0 mm
03:10 PM 39.2°F4.0°C 22.6°F-5.2°C 51% 1.2 mph SW1.9 kmh SW 1.2 mph1.9 kmh 29.93 in1013.5 mb - 0.00 in0.0 mm 0.00 in0.0 mm
03:00 PM 39.2°F4.0°C 22.6°F-5.2°C 51% 2.3 mph SSW3.7 kmh SSW 4.6 mph7.4 kmh 29.93 in1013.5 mb - 0.00 in0.0 mm 0.00 in0.0 mm
02:50 PM 39.6°F4.2°C 22.5°F-5.3°C 50% 1.2 mph SW1.9 kmh SW 3.5 mph5.6 kmh 29.93 in1013.5 mb - 0.00 in0.0 mm 0.00 in0.0 mm
02:40 PM 39.8°F4.3°C 22.2°F-5.4°C 49% 2.3 mph SW3.7 kmh SW 3.5 mph5.6 kmh 29.94 in1013.9 mb - 0.00 in0.0 mm 0.00 in0.0 mm
02:30 PM 39.4°F4.1°C 21.8°F-5.7°C 49% 1.2 mph SW1.9 kmh SW 4.6 mph7.4 kmh 29.94 in1013.9 mb - 0.00 in0.0 mm 0.00 in0.0 mm
02:20 PM 39.2°F4.0°C 21.6°F-5.8°C 49% 2.3 mph SW3.7 kmh SW 3.5 mph5.6 kmh 29.94 in1013.9 mb - 0.00 in0.0 mm 0.00 in0.0 mm
02:10 PM 38.2°F3.4°C 21.2°F-6.0°C 50% 2.3 mph SSW3.7 kmh SSW 3.5 mph5.6 kmh 29.95 in1014.2 mb - 0.00 in0.0 mm 0.00 in0.0 mm
02:00 PM 37.7°F3.2°C 20.7°F-6.3°C 50% 1.2 mph SSW1.9 kmh SSW 3.5 mph5.6 kmh 29.96 in1014.6 mb - 0.00 in0.0 mm 0.00 in0.0 mm
01:50 PM 37.4°F3.0°C 20.9°F-6.2°C 51% 1.2 mph S1.9 kmh S 3.5 mph5.6 kmh 29.96 in1014.6 mb - 0.00 in0.0 mm 0.00 in0.0 mm
01:40 PM 37.1°F2.8°C 20.2°F-6.6°C 50% Calm Calm -- 29.97 in1014.9 mb - 0.00 in0.0 mm 0.00 in0.0 mm
01:30 PM 36.4°F2.4°C 19.5°F-6.9°C 50% Calm Calm -- 29.98 in1015.2 mb - 0.00 in0.0 mm 0.00 in0.0 mm
01:20 PM 35.1°F1.7°C 19.2°F-7.1°C 52% Calm Calm -- 29.98 in1015.2 mb - 0.00 in0.0 mm 0.00 in0.0 mm
01:10 PM 34.3°F1.3°C 18.9°F-7.3°C 53% 2.3 mph S3.7 kmh S 5.8 mph9.3 kmh 29.98 in1015.2 mb - 0.00 in0.0 mm 0.00 in0.0 mm
01:00 PM 33.8°F1.0°C 18.5°F-7.5°C 53% 3.5 mph S5.6 kmh S 5.8 mph9.3 kmh 29.99 in1015.6 mb - 0.00 in0.0 mm 0.00 in0.0 mm
12:50 PM 33.3°F0.7°C 17.5°F-8.1°C 52% 2.3 mph SSW3.7 kmh SSW 3.5 mph5.6 kmh 29.99 in1015.6 mb - 0.00 in0.0 mm 0.00 in0.0 mm
12:40 PM 33.3°F0.7°C 18.0°F-7.8°C 53% 1.2 mph SW1.9 kmh SW 6.9 mph11.1 kmh 29.99 in1015.6 mb - 0.00 in0.0 mm 0.00 in0.0 mm
12:30 PM 33.1°F0.6°C 17.4°F-8.1°C 52% Calm Calm -- 30.00 in1015.9 mb - 0.00 in0.0 mm 0.00 in0.0 mm
12:20 PM 32.6°F0.3°C 16.9°F-8.4°C 52% Calm Calm 1.2 mph1.9 kmh 30.00 in1015.9 mb - 0.00 in0.0 mm 0.00 in0.0 mm
12:10 PM 32.3°F0.2°C 16.6°F-8.6°C 52% Calm Calm 3.5 mph5.6 kmh 30.01 in1016.3 mb - 0.00 in0.0 mm 0.00 in0.0 mm
12:00 PM 31.6°F-0.2°C 16.8°F-8.4°C 54% Calm Calm -- 30.02 in1016.6 mb - 0.00 in0.0 mm 0.00 in0.0 mm
11:50 AM 30.7°F-0.7°C 16.0°F-8.9°C 54% 1.2 mph S1.9 kmh S 5.8 mph9.3 kmh 30.03 in1016.9 mb - 0.00 in0.0 mm 0.00 in0.0 mm
11:40 AM 30.6°F-0.8°C 15.9°F-8.9°C 54% Calm Calm -- 30.04 in1017.3 mb - 0.00 in0.0 mm 0.00 in0.0 mm
11:30 AM 29.6°F-1.3°C 15.4°F-9.2°C 55% 1.2 mph SSW1.9 kmh SSW 3.5 mph5.6 kmh 30.05 in1017.6 mb - 0.00 in0.0 mm 0.00 in0.0 mm
11:20 AM 29.1°F-1.6°C 15.4°F-9.2°C 56% Calm Calm -- 30.05 in1017.6 mb - 0.00 in0.0 mm 0.00 in0.0 mm
11:10 AM 28.6°F-1.9°C 14.9°F-9.5°C 56% Calm Calm -- 30.06 in1017.9 mb - 0.00 in0.0 mm 0.00 in0.0 mm
11:00 AM 28.3°F-2.1°C 15.0°F-9.4°C 57% 3.5 mph SW5.6 kmh SW 6.9 mph11.1 kmh 30.07 in1018.3 mb - 0.00 in0.0 mm 0.00 in0.0 mm
10:50 AM 27.3°F-2.6°C 14.8°F-9.6°C 59% Calm Calm -- 30.07 in1018.3 mb - 0.00 in0.0 mm 0.00 in0.0 mm
10:40 AM 26.2°F-3.2°C 14.2°F-9.9°C 60% 1.2 mph SW1.9 kmh SW 4.6 mph7.4 kmh 30.08 in1018.6 mb - 0.00 in0.0 mm 0.00 in0.0 mm
10:30 AM 25.7°F-3.5°C 14.1°F-9.9°C 61% Calm Calm -- 30.08 in1018.6 mb - 0.00 in0.0 mm 0.00 in0.0 mm
10:20 AM 24.9°F-3.9°C 14.1°F-9.9°C 63% Calm Calm -- 30.09 in1019.0 mb - 0.00 in0.0 mm 0.00 in0.0 mm
10:10 AM 24.3°F-4.3°C 13.9°F-10.1°C 64% Calm Calm -- 30.09 in1019.0 mb - 0.00 in0.0 mm 0.00 in0.0 mm
10:00 AM 23.6°F-4.7°C 13.9°F-10.1°C 66% Calm Calm -- 30.09 in1019.0 mb - 0.00 in0.0 mm 0.00 in0.0 mm
09:50 AM 23.1°F-4.9°C 13.8°F-10.1°C 67% Calm Calm -- 30.09 in1019.0 mb - 0.00 in0.0 mm 0.00 in0.0 mm
09:40 AM 22.8°F-5.1°C 13.8°F-10.1°C 68% Calm Calm -- 30.09 in1019.0 mb - 0.00 in0.0 mm 0.00 in0.0 mm
09:30 AM 22.4°F-5.3°C 13.4°F-10.3°C 68% Calm Calm -- 30.10 in1019.3 mb - 0.00 in0.0 mm 0.00 in0.0 mm
09:20 AM 22.0°F-5.6°C 13.7°F-10.2°C 70% Calm Calm -- 30.10 in1019.3 mb - 0.00 in0.0 mm 0.00 in0.0 mm
09:10 AM 21.4°F-5.9°C 13.4°F-10.3°C 71% Calm Calm -- 30.10 in1019.3 mb - 0.00 in0.0 mm 0.00 in0.0 mm
09:00 AM 21.0°F-6.1°C 13.4°F-10.3°C 72% 1.2 mph WSW1.9 kmh WSW 3.5 mph5.6 kmh 30.10 in1019.3 mb - 0.00 in0.0 mm 0.00 in0.0 mm
08:50 AM 20.5°F-6.4°C 12.9°F-10.6°C 72% Calm Calm 3.5 mph5.6 kmh 30.10 in1019.3 mb - 0.00 in0.0 mm 0.00 in0.0 mm
08:40 AM 20.3°F-6.5°C 13.0°F-10.6°C 73% Calm Calm -- 30.11 in1019.6 mb - 0.00 in0.0 mm 0.00 in0.0 mm
08:30 AM 19.6°F-6.9°C 13.2°F-10.4°C 76% Calm Calm -- 30.11 in1019.6 mb - 0.00 in0.0 mm 0.00 in0.0 mm
08:20 AM 18.6°F-7.4°C 12.3°F-10.9°C 76% Calm Calm 3.5 mph5.6 kmh 30.11 in1019.6 mb - 0.00 in0.0 mm 0.00 in0.0 mm
08:10 AM 18.1°F-7.7°C 12.1°F-11.1°C 77% Calm Calm -- 30.10 in1019.3 mb - 0.00 in0.0 mm 0.00 in0.0 mm
08:00 AM 17.6°F-8.0°C 11.6°F-11.3°C 77% Calm Calm -- 30.10 in1019.3 mb - 0.00 in0.0 mm 0.00 in0.0 mm
07:50 AM 17.1°F-8.3°C 11.4°F-11.4°C 78% Calm Calm -- 30.10 in1019.3 mb - 0.00 in0.0 mm 0.00 in0.0 mm
07:40 AM 16.8°F-8.4°C 11.1°F-11.6°C 78% Calm Calm -- 30.10 in1019.3 mb - 0.00 in0.0 mm 0.00 in0.0 mm
07:30 AM 16.7°F-8.5°C 11.0°F-11.7°C 78% Calm Calm -- 30.10 in1019.3 mb - 0.00 in0.0 mm 0.00 in0.0 mm
07:20 AM 16.7°F-8.5°C 10.7°F-11.8°C 77% Calm Calm -- 30.10 in1019.3 mb - 0.00 in0.0 mm 0.00 in0.0 mm
07:10 AM 16.7°F-8.5°C 10.7°F-11.8°C 77% Calm Calm -- 30.10 in1019.3 mb - 0.00 in0.0 mm 0.00 in0.0 mm
07:00 AM 16.6°F-8.6°C 10.6°F-11.9°C 77% Calm Calm -- 30.11 in1019.6 mb - 0.00 in0.0 mm 0.00 in0.0 mm
06:50 AM 16.6°F-8.6°C 10.6°F-11.9°C 77% Calm Calm 1.2 mph1.9 kmh 30.10 in1019.3 mb - 0.00 in0.0 mm 0.00 in0.0 mm
06:40 AM 16.6°F-8.6°C 10.3°F-12.1°C 76% Calm Calm -- 30.10 in1019.3 mb - 0.00 in0.0 mm 0.00 in0.0 mm
06:30 AM 16.7°F-8.5°C 10.4°F-12.0°C 76% Calm Calm -- 30.09 in1019.0 mb - 0.00 in0.0 mm 0.00 in0.0 mm
06:20 AM 16.8°F-8.4°C 10.5°F-11.9°C 76% Calm Calm -- 30.09 in1019.0 mb - 0.00 in0.0 mm 0.00 in0.0 mm
06:10 AM 17.0°F-8.3°C 10.4°F-12.0°C 75% Calm Calm -- 30.09 in1019.0 mb - 0.00 in0.0 mm 0.00 in0.0 mm
06:00 AM 17.2°F-8.2°C 10.3°F-12.1°C 74% Calm Calm -- 30.09 in1019.0 mb - 0.00 in0.0 mm 0.00 in0.0 mm
05:50 AM 17.4°F-8.1°C 10.5°F-11.9°C 74% Calm Calm -- 30.09 in1019.0 mb - 0.00 in0.0 mm 0.00 in0.0 mm
05:40 AM 17.6°F-8.0°C 10.4°F-12.0°C 73% Calm Calm -- 30.09 in1019.0 mb - 0.00 in0.0 mm 0.00 in0.0 mm
05:30 AM 17.7°F-7.9°C 10.2°F-12.1°C 72% Calm Calm -- 30.09 in1019.0 mb - 0.00 in0.0 mm 0.00 in0.0 mm
05:20 AM 17.9°F-7.8°C 10.0°F-12.2°C 71% Calm Calm -- 30.09 in1019.0 mb - 0.00 in0.0 mm 0.00 in0.0 mm
05:10 AM 17.8°F-7.9°C 9.7°F-12.4°C 70% Calm Calm -- 30.10 in1019.3 mb - 0.00 in0.0 mm 0.00 in0.0 mm
05:00 AM 17.9°F-7.8°C 9.4°F-12.6°C 69% Calm Calm -- 30.09 in1019.0 mb - 0.00 in0.0 mm 0.00 in0.0 mm
04:50 AM 18.1°F-7.7°C 9.3°F-12.6°C 68% Calm Calm -- 30.09 in1019.0 mb - 0.00 in0.0 mm 0.00 in0.0 mm
04:40 AM 18.2°F-7.7°C 9.4°F-12.6°C 68% Calm Calm -- 30.09 in1019.0 mb - 0.00 in0.0 mm 0.00 in0.0 mm
04:30 AM 18.2°F-7.7°C 9.7°F-12.4°C 69% Calm Calm -- 30.09 in1019.0 mb - 0.00 in0.0 mm 0.00 in0.0 mm
04:20 AM 18.2°F-7.7°C 9.7°F-12.4°C 69% Calm Calm -- 30.09 in1019.0 mb - 0.00 in0.0 mm 0.00 in0.0 mm
04:10 AM 18.3°F-7.6°C 9.8°F-12.3°C 69% Calm Calm -- 30.09 in1019.0 mb - 0.00 in0.0 mm 0.00 in0.0 mm
04:00 AM 18.4°F-7.6°C 9.9°F-12.3°C 69% Calm Calm -- 30.10 in1019.3 mb - 0.00 in0.0 mm 0.00 in0.0 mm
03:50 AM 18.4°F-7.6°C 9.9°F-12.3°C 69% Calm Calm -- 30.10 in1019.3 mb - 0.00 in0.0 mm 0.00 in0.0 mm
03:40 AM 18.5°F-7.5°C 9.7°F-12.4°C 68% 2.3 mph WNW3.7 kmh WNW 5.8 mph9.3 kmh 30.10 in1019.3 mb - 0.00 in0.0 mm 0.00 in0.0 mm
03:30 AM 18.6°F-7.4°C 9.8°F-12.3°C 68% Calm Calm 3.5 mph5.6 kmh 30.11 in1019.6 mb - 0.00 in0.0 mm 0.00 in0.0 mm
03:20 AM 18.5°F-7.5°C 9.7°F-12.4°C 68% 1.2 mph WSW1.9 kmh WSW 3.5 mph5.6 kmh 30.11 in1019.6 mb - 0.00 in0.0 mm 0.00 in0.0 mm
03:10 AM 18.5°F-7.5°C 9.7°F-12.4°C 68% Calm Calm -- 30.11 in1019.6 mb - 0.00 in0.0 mm 0.00 in0.0 mm
03:00 AM 18.5°F-7.5°C 9.7°F-12.4°C 68% Calm Calm 3.5 mph5.6 kmh 30.11 in1019.6 mb - 0.00 in0.0 mm 0.00 in0.0 mm
02:50 AM 18.6°F-7.4°C 9.8°F-12.3°C 68% Calm Calm -- 30.11 in1019.6 mb - 0.00 in0.0 mm 0.00 in0.0 mm
02:40 AM 18.6°F-7.4°C 9.8°F-12.3°C 68% Calm Calm 4.6 mph7.4 kmh 30.11 in1019.6 mb - 0.00 in0.0 mm 0.00 in0.0 mm
02:30 AM 18.6°F-7.4°C 9.8°F-12.3°C 68% 1.2 mph NW1.9 kmh NW 2.3 mph3.7 kmh 30.10 in1019.3 mb - 0.00 in0.0 mm 0.00 in0.0 mm
02:20 AM 18.7°F-7.4°C 10.2°F-12.1°C 69% Calm Calm -- 30.10 in1019.3 mb - 0.00 in0.0 mm 0.00 in0.0 mm
02:10 AM 18.7°F-7.4°C 9.9°F-12.3°C 68% Calm Calm -- 30.10 in1019.3 mb - 0.00 in0.0 mm 0.00 in0.0 mm
02:00 AM 18.8°F-7.3°C 9.7°F-12.4°C 67% Calm Calm -- 30.09 in1019.0 mb - 0.00 in0.0 mm 0.00 in0.0 mm
01:50 AM 18.9°F-7.3°C 9.7°F-12.4°C 67% Calm Calm -- 30.09 in1019.0 mb - 0.00 in0.0 mm 0.00 in0.0 mm
01:40 AM 19.0°F-7.2°C 9.8°F-12.3°C 67% Calm Calm -- 30.09 in1019.0 mb - 0.00 in0.0 mm 0.00 in0.0 mm
01:30 AM 19.1°F-7.2°C 9.9°F-12.3°C 67% 1.2 mph NW1.9 kmh NW 3.5 mph5.6 kmh 30.09 in1019.0 mb - 0.00 in0.0 mm 0.00 in0.0 mm
01:20 AM 19.3°F-7.1°C 9.8°F-12.3°C 66% Calm Calm 2.3 mph3.7 kmh 30.09 in1019.0 mb - 0.00 in0.0 mm 0.00 in0.0 mm
01:10 AM 19.3°F-7.1°C 9.8°F-12.3°C 66% 1.2 mph NW1.9 kmh NW 6.9 mph11.1 kmh 30.09 in1019.0 mb - 0.00 in0.0 mm 0.00 in0.0 mm
01:00 AM 19.3°F-7.1°C 9.8°F-12.3°C 66% Calm Calm -- 30.08 in1018.6 mb - 0.00 in0.0 mm 0.00 in0.0 mm
12:50 AM 19.4°F-7.0°C 9.6°F-12.4°C 65% Calm Calm 1.2 mph1.9 kmh 30.08 in1018.6 mb - 0.00 in0.0 mm 0.00 in0.0 mm
12:40 AM 19.6°F-6.9°C 9.4°F-12.6°C 64% Calm Calm -- 30.07 in1018.3 mb - 0.00 in0.0 mm 0.00 in0.0 mm
12:30 AM 19.7°F-6.8°C 9.8°F-12.3°C 65% 1.2 mph NW1.9 kmh NW 5.8 mph9.3 kmh 30.08 in1018.6 mb - 0.00 in0.0 mm 0.00 in0.0 mm
12:20 AM 19.8°F-6.8°C 9.6°F-12.4°C 64% Calm Calm -- 30.08 in1018.6 mb - 0.00 in0.0 mm 0.00 in0.0 mm
12:10 AM 20.1°F-6.6°C 9.9°F-12.3°C 64% Calm Calm -- 30.08 in1018.6 mb - 0.00 in0.0 mm 0.00 in0.0 mm
12:00 AM 20.3°F-6.5°C 10.4°F-12.0°C 65% Calm Calm -- 30.08 in1018.6 mb - 0.00 in0.0 mm 0.00 in0.0 mm